createdAt,value
2018-02-25T05:00:45.718Z,0
2018-02-25T05:01:11.201Z,0
2018-02-25T05:01:36.662Z,0
2018-02-25T05:02:02.187Z,0
2018-02-25T05:02:27.608Z,0
2018-02-25T05:02:53.095Z,0
2018-02-25T05:03:18.566Z,0
2018-02-25T05:03:44.023Z,0
2018-02-25T05:04:52.706Z,0
2018-02-25T05:05:18.210Z,0
2018-02-25T05:05:43.736Z,0
2018-02-25T05:06:09.192Z,0
2018-02-25T05:06:34.670Z,0
2018-02-25T05:07:00.111Z,0
2018-02-25T05:07:25.564Z,0
2018-02-25T05:07:51.005Z,0
2018-02-25T05:08:16.494Z,0
2018-02-25T05:08:42.035Z,0
2018-02-25T05:09:07.487Z,0
2018-02-25T05:09:32.951Z,0
2018-02-25T05:09:58.405Z,0
2018-02-25T05:10:23.868Z,0
2018-02-25T05:10:49.368Z,0
2018-02-25T05:11:14.841Z,0
2018-02-25T05:11:40.277Z,0
2018-02-25T05:12:05.744Z,0
2018-02-25T05:12:31.176Z,0
2018-02-25T05:12:56.677Z,0
2018-02-25T05:13:22.147Z,0
2018-02-25T05:13:47.590Z,0
2018-02-25T05:14:13.045Z,0
2018-02-25T05:14:38.560Z,0
2018-02-25T05:15:03.949Z,0
2018-02-25T05:15:29.453Z,0
2018-02-25T05:15:54.935Z,0
2018-02-25T05:16:20.414Z,0
2018-02-25T05:16:45.856Z,0
2018-02-25T05:17:11.293Z,0
2018-02-25T05:17:36.790Z,0
2018-02-25T05:18:02.235Z,0
2018-02-25T05:18:27.711Z,0
2018-02-25T05:18:53.165Z,0
2018-02-25T05:19:18.640Z,0
2018-02-25T05:19:44.129Z,0
2018-02-25T05:20:09.549Z,0
2018-02-25T05:20:35.028Z,0
2018-02-25T05:21:00.477Z,0
2018-02-25T05:21:25.920Z,0
2018-02-25T05:21:51.368Z,0
2018-02-25T05:22:16.833Z,0
2018-02-25T05:22:42.318Z,0
2018-02-25T05:23:07.787Z,0
2018-02-25T05:23:33.214Z,0
2018-02-25T05:23:58.689Z,0
2018-02-25T05:24:24.100Z,0
2018-02-25T05:24:49.599Z,0
2018-02-25T05:25:15.107Z,0
2018-02-25T05:25:40.520Z,0
2018-02-25T05:26:05.939Z,0
2018-02-25T05:26:31.412Z,0
2018-02-25T05:26:56.877Z,0
2018-02-25T05:27:22.376Z,0
2018-02-25T05:27:47.812Z,0
2018-02-25T05:28:13.287Z,0
2018-02-25T05:28:38.745Z,0
2018-02-25T05:29:04.205Z,0
2018-02-25T05:29:29.699Z,0
2018-02-25T05:29:55.232Z,0
2018-02-25T05:30:20.695Z,0
2018-02-25T05:30:46.150Z,0
2018-02-25T05:31:11.583Z,0
2018-02-25T05:31:37.040Z,0
2018-02-25T05:32:02.505Z,0
2018-02-25T05:32:28.026Z,0
2018-02-25T05:32:53.412Z,0
2018-02-25T05:33:18.945Z,0
2018-02-25T05:33:44.337Z,0
2018-02-25T05:34:09.799Z,0
2018-02-25T05:34:35.268Z,0
2018-02-25T05:35:00.737Z,0
2018-02-25T05:35:26.201Z,0
2018-02-25T05:35:51.612Z,0
2018-02-25T05:36:17.066Z,0
2018-02-25T05:36:42.495Z,0
2018-02-25T05:37:07.972Z,0
2018-02-25T05:37:33.444Z,0
2018-02-25T05:37:58.874Z,0
2018-02-25T05:38:24.400Z,0
2018-02-25T05:38:49.824Z,0
2018-02-25T05:39:15.279Z,0
2018-02-25T05:39:40.768Z,0
2018-02-25T05:40:06.167Z,0
2018-02-25T05:40:31.619Z,0
2018-02-25T05:40:57.119Z,0
2018-02-25T05:41:22.542Z,0
2018-02-25T05:41:48.014Z,0
2018-02-25T05:42:13.477Z,0
2018-02-25T05:42:38.960Z,0
2018-02-25T05:43:04.379Z,0
2018-02-25T05:43:29.847Z,0
2018-02-25T05:43:55.335Z,0
2018-02-25T05:44:21.010Z,0
2018-02-25T05:44:46.421Z,0
2018-02-25T05:45:11.900Z,0
2018-02-25T05:45:37.300Z,0
2018-02-25T05:46:02.750Z,0
2018-02-25T05:46:28.191Z,0
2018-02-25T05:46:53.678Z,0
2018-02-25T05:47:19.180Z,0
2018-02-25T05:47:44.594Z,0
2018-02-25T05:48:10.077Z,0
2018-02-25T05:48:35.533Z,0
2018-02-25T05:49:00.995Z,0
2018-02-25T05:49:26.446Z,0
2018-02-25T05:49:51.932Z,0
2018-02-25T05:50:17.412Z,0
2018-02-25T05:50:42.885Z,0
2018-02-25T05:51:08.355Z,0
2018-02-25T05:51:33.814Z,4
2018-02-25T05:51:59.292Z,4
2018-02-25T05:52:24.743Z,4
2018-02-25T05:52:50.194Z,4
2018-02-25T05:53:15.724Z,4
2018-02-25T05:53:41.219Z,0
2018-02-25T05:54:06.712Z,0
2018-02-25T05:54:32.128Z,0
2018-02-25T05:54:57.603Z,4
2018-02-25T05:55:23.061Z,4
2018-02-25T05:55:48.553Z,4
2018-02-25T05:56:13.994Z,0
2018-02-25T05:56:39.468Z,4
2018-02-25T05:57:04.926Z,4
2018-02-25T05:57:30.370Z,4
2018-02-25T05:57:55.877Z,4
2018-02-25T05:58:21.364Z,4
2018-02-25T05:58:46.832Z,4
2018-02-25T05:59:12.294Z,8
2018-02-25T05:59:37.817Z,4
2018-02-25T06:00:03.279Z,4
2018-02-25T06:00:28.752Z,8
2018-02-25T06:00:54.267Z,4
2018-02-25T06:01:19.707Z,8
2018-02-25T06:01:45.140Z,8
2018-02-25T06:02:10.614Z,8
2018-02-25T06:02:36.051Z,8
2018-02-25T06:03:01.507Z,8
2018-02-25T06:03:27.016Z,8
2018-02-25T06:03:52.463Z,12
2018-02-25T06:04:17.894Z,12
2018-02-25T06:04:43.347Z,16
2018-02-25T06:05:08.775Z,16
2018-02-25T06:05:34.282Z,16
2018-02-25T06:05:59.717Z,16
2018-02-25T06:06:25.218Z,16
2018-02-25T06:06:50.716Z,20
2018-02-25T06:07:16.255Z,20
2018-02-25T06:07:41.658Z,20
2018-02-25T06:08:08.123Z,24
2018-02-25T06:08:32.870Z,24
2018-02-25T06:08:58.376Z,28
2018-02-25T06:09:23.831Z,28
2018-02-25T06:09:49.300Z,28
2018-02-25T06:10:14.765Z,28
2018-02-25T06:10:40.254Z,32
2018-02-25T06:11:05.728Z,36
2018-02-25T06:11:31.180Z,36
2018-02-25T06:11:56.642Z,40
2018-02-25T06:12:22.140Z,40
2018-02-25T06:12:47.629Z,44
2018-02-25T06:13:13.076Z,44
2018-02-25T06:13:38.562Z,48
2018-02-25T06:14:04.013Z,48
2018-02-25T06:14:29.484Z,56
2018-02-25T06:14:55.003Z,56
2018-02-25T06:15:20.494Z,60
2018-02-25T06:15:45.953Z,60
2018-02-25T06:16:11.403Z,68
2018-02-25T06:16:36.847Z,72
2018-02-25T06:17:02.314Z,76
2018-02-25T06:17:27.790Z,80
2018-02-25T06:17:53.236Z,84
2018-02-25T06:18:18.675Z,88
2018-02-25T06:18:44.159Z,88
2018-02-25T06:19:09.632Z,92
2018-02-25T06:19:35.093Z,100
2018-02-25T06:20:00.578Z,104
2018-02-25T06:20:26.019Z,112
2018-02-25T06:20:51.478Z,112
2018-02-25T06:21:17.178Z,120
2018-02-25T06:21:42.613Z,124
2018-02-25T06:22:08.076Z,128
2018-02-25T06:22:33.563Z,136
2018-02-25T06:22:59.064Z,140
2018-02-25T06:23:24.489Z,148
2018-02-25T06:23:50.941Z,152
2018-02-25T06:24:16.389Z,156
2018-02-25T06:24:41.892Z,164
2018-02-25T06:25:07.292Z,172
2018-02-25T06:25:32.762Z,180
2018-02-25T06:25:58.260Z,184
2018-02-25T06:26:23.700Z,192
2018-02-25T06:26:49.146Z,200
2018-02-25T06:27:14.650Z,208
2018-02-25T06:27:40.096Z,216
2018-02-25T06:28:05.571Z,220
2018-02-25T06:28:31.026Z,228
2018-02-25T06:28:56.564Z,236
2018-02-25T06:29:21.964Z,244
2018-02-25T06:29:47.429Z,252
2018-02-25T06:30:12.906Z,260
2018-02-25T06:30:38.383Z,268
2018-02-25T06:31:03.845Z,276
2018-02-25T06:31:29.384Z,284
2018-02-25T06:31:54.804Z,292
2018-02-25T06:32:20.279Z,304
2018-02-25T06:32:45.715Z,312
2018-02-25T06:33:11.160Z,320
2018-02-25T06:33:36.659Z,332
2018-02-25T06:34:02.116Z,336
2018-02-25T06:34:27.576Z,344
2018-02-25T06:34:53.029Z,356
2018-02-25T06:35:18.535Z,364
2018-02-25T06:35:44.005Z,376
2018-02-25T06:36:09.470Z,384
2018-02-25T06:36:34.933Z,396
2018-02-25T06:37:00.438Z,404
2018-02-25T06:37:25.889Z,412
2018-02-25T06:37:51.360Z,424
2018-02-25T06:38:16.854Z,432
2018-02-25T06:38:42.291Z,444
2018-02-25T06:39:07.721Z,456
2018-02-25T06:39:33.183Z,464
2018-02-25T06:39:58.681Z,472
2018-02-25T06:40:24.129Z,484
2018-02-25T06:40:49.592Z,492
2018-02-25T06:41:15.054Z,504
2018-02-25T06:41:40.602Z,512
2018-02-25T06:42:05.968Z,524
2018-02-25T06:42:31.459Z,536
2018-02-25T06:42:56.947Z,544
2018-02-25T06:43:22.399Z,556
2018-02-25T06:43:47.863Z,564
2018-02-25T06:44:13.355Z,576
2018-02-25T06:44:38.843Z,588
2018-02-25T06:45:04.302Z,596
2018-02-25T06:45:29.778Z,608
2018-02-25T06:45:55.232Z,616
2018-02-25T06:46:20.699Z,628
2018-02-25T06:46:46.224Z,640
2018-02-25T06:47:11.687Z,648
2018-02-25T06:47:37.132Z,660
2018-02-25T06:48:02.625Z,668
2018-02-25T06:48:28.111Z,684
2018-02-25T06:48:53.530Z,692
2018-02-25T06:49:19.005Z,700
2018-02-25T06:49:44.474Z,712
2018-02-25T06:50:09.929Z,724
2018-02-25T06:50:35.409Z,732
2018-02-25T06:51:00.889Z,740
2018-02-25T06:51:26.323Z,752
2018-02-25T06:51:51.769Z,760
2018-02-25T06:52:17.305Z,772
2018-02-25T06:52:42.726Z,784
2018-02-25T06:53:08.254Z,792
2018-02-25T06:53:33.705Z,800
2018-02-25T06:53:59.160Z,812
2018-02-25T06:54:24.657Z,824
2018-02-25T06:54:50.156Z,832
2018-02-25T06:55:15.653Z,840
2018-02-25T06:55:41.132Z,852
2018-02-25T06:56:06.575Z,860
2018-02-25T06:56:32.059Z,872
2018-02-25T06:56:57.498Z,876
2018-02-25T06:57:23.069Z,888
2018-02-25T06:57:48.451Z,896
2018-02-25T06:58:13.920Z,908
2018-02-25T06:58:39.458Z,916
2018-02-25T06:59:04.873Z,924
2018-02-25T06:59:30.292Z,932
2018-02-25T06:59:55.801Z,944
2018-02-25T07:00:21.227Z,956
2018-02-25T07:00:46.681Z,964
2018-02-25T07:01:12.147Z,972
2018-02-25T07:01:37.639Z,980
2018-02-25T07:02:03.082Z,988
2018-02-25T07:02:28.575Z,996
2018-02-25T07:02:54.048Z,1004
2018-02-25T07:03:19.532Z,1016
2018-02-25T07:03:44.948Z,1024
2018-02-25T07:04:10.399Z,1032
2018-02-25T07:04:35.858Z,1040
2018-02-25T07:05:01.347Z,1048
2018-02-25T07:05:26.835Z,1056
2018-02-25T07:05:52.312Z,1068
2018-02-25T07:06:17.766Z,1072
2018-02-25T07:06:43.231Z,1080
2018-02-25T07:07:08.714Z,1088
2018-02-25T07:07:34.236Z,1100
2018-02-25T07:07:59.664Z,1104
2018-02-25T07:08:25.110Z,1112
2018-02-25T07:08:50.626Z,1120
2018-02-25T07:09:16.107Z,1128
2018-02-25T07:09:41.542Z,1136
2018-02-25T07:10:06.998Z,1144
2018-02-25T07:10:32.462Z,1152
2018-02-25T07:10:57.936Z,1156
2018-02-25T07:11:23.397Z,1164
2018-02-25T07:11:48.864Z,1172
2018-02-25T07:12:14.313Z,1180
2018-02-25T07:12:39.816Z,1188
2018-02-25T07:13:05.234Z,1196
2018-02-25T07:13:30.692Z,1200
2018-02-25T07:13:56.165Z,1208
2018-02-25T07:14:21.671Z,1216
2018-02-25T07:14:47.189Z,1224
2018-02-25T07:15:12.615Z,1228
2018-02-25T07:15:38.076Z,1236
2018-02-25T07:16:03.539Z,1248
2018-02-25T07:16:28.966Z,1256
2018-02-25T07:16:54.471Z,1268
2018-02-25T07:17:19.961Z,1276
2018-02-25T07:17:45.392Z,1284
2018-02-25T07:18:10.899Z,1296
2018-02-25T07:18:36.351Z,1304
2018-02-25T07:19:01.813Z,1316
2018-02-25T07:19:27.265Z,1324
2018-02-25T07:19:52.745Z,1332
2018-02-25T07:20:18.219Z,1340
2018-02-25T07:20:43.680Z,1348
2018-02-25T07:21:09.156Z,1356
2018-02-25T07:21:34.648Z,1360
2018-02-25T07:22:00.128Z,1364
2018-02-25T07:22:25.590Z,1368
2018-02-25T07:22:51.123Z,1376
2018-02-25T07:23:16.648Z,1380
2018-02-25T07:23:42.106Z,1384
2018-02-25T07:24:07.598Z,1388
2018-02-25T07:24:33.060Z,1396
2018-02-25T07:24:58.528Z,1400
2018-02-25T07:25:24.019Z,1408
2018-02-25T07:25:49.481Z,1416
2018-02-25T07:26:14.942Z,1428
2018-02-25T07:26:40.445Z,1436
2018-02-25T07:27:05.891Z,1452
2018-02-25T07:27:31.357Z,1468
2018-02-25T07:27:56.816Z,1488
2018-02-25T07:28:22.343Z,1508
2018-02-25T07:28:47.855Z,1536
2018-02-25T07:29:13.357Z,1560
2018-02-25T07:29:38.816Z,1596
2018-02-25T07:30:04.291Z,1628
2018-02-25T07:30:29.766Z,1656
2018-02-25T07:30:55.308Z,1684
2018-02-25T07:31:20.781Z,1716
2018-02-25T07:31:46.267Z,1736
2018-02-25T07:32:11.704Z,1752
2018-02-25T07:32:37.160Z,1768
2018-02-25T07:33:02.623Z,1776
2018-02-25T07:33:28.079Z,1792
2018-02-25T07:33:53.768Z,1796
2018-02-25T07:34:19.249Z,1804
2018-02-25T07:34:44.725Z,1820
2018-02-25T07:35:10.185Z,1832
2018-02-25T07:35:35.671Z,1840
2018-02-25T07:36:01.162Z,1848
2018-02-25T07:36:26.643Z,1856
2018-02-25T07:36:52.095Z,1864
2018-02-25T07:37:17.586Z,1872
2018-02-25T07:37:43.137Z,1876
2018-02-25T07:38:09.135Z,1876
2018-02-25T07:38:35.084Z,1888
2018-02-25T07:39:00.635Z,1900
2018-02-25T07:39:26.046Z,1900
2018-02-25T07:39:51.615Z,1900
2018-02-25T07:41:15.719Z,1912
2018-02-25T07:41:41.674Z,1920
2018-02-25T07:42:07.295Z,1924
2018-02-25T07:42:32.745Z,1928
2018-02-25T07:42:58.240Z,1916
2018-02-25T07:43:23.823Z,1912
2018-02-25T07:43:49.273Z,1912
2018-02-25T07:44:14.737Z,1908
2018-02-25T07:44:40.270Z,1904
2018-02-25T07:45:05.689Z,1908
2018-02-25T07:45:31.371Z,1904
2018-02-25T07:45:56.849Z,1916
2018-02-25T07:46:22.319Z,1916
2018-02-25T07:46:47.832Z,1900
2018-02-25T07:47:13.254Z,1904
2018-02-25T07:47:38.743Z,1892
2018-02-25T07:48:04.211Z,1896
2018-02-25T07:48:29.668Z,1896
2018-02-25T07:48:55.212Z,1900
2018-02-25T07:49:20.716Z,1896
2018-02-25T07:49:46.183Z,1892
2018-02-25T07:50:11.691Z,1896
2018-02-25T07:50:37.132Z,1892
2018-02-25T07:51:02.600Z,1900
2018-02-25T07:51:28.088Z,1896
2018-02-25T07:51:53.545Z,1904
2018-02-25T07:52:19.008Z,1896
2018-02-25T07:52:44.485Z,1888
2018-02-25T07:53:09.976Z,1900
2018-02-25T07:53:35.504Z,1892
2018-02-25T07:54:00.987Z,1892
2018-02-25T07:54:26.531Z,1892
2018-02-25T07:54:52.088Z,1892
2018-02-25T07:55:17.558Z,1892
2018-02-25T07:55:43.064Z,1896
2018-02-25T07:56:08.779Z,1892
2018-02-25T07:56:34.085Z,1892
2018-02-25T07:56:59.571Z,1892
2018-02-25T07:57:25.070Z,1884
2018-02-25T07:57:50.556Z,1888
2018-02-25T07:58:16.062Z,1888
2018-02-25T07:58:41.497Z,1892
2018-02-25T07:59:06.998Z,1888
2018-02-25T07:59:32.461Z,1892
2018-02-25T07:59:57.916Z,1892
2018-02-25T08:00:23.388Z,1896
2018-02-25T08:00:48.864Z,1900
2018-02-25T08:01:14.375Z,1900
2018-02-25T08:01:39.819Z,1904
2018-02-25T08:02:05.273Z,1908
2018-02-25T08:02:30.814Z,1916
2018-02-25T08:02:56.227Z,1916
2018-02-25T08:03:21.731Z,1920
2018-02-25T08:03:47.189Z,1928
2018-02-25T08:04:12.638Z,1936
2018-02-25T08:04:38.113Z,1940
2018-02-25T08:05:03.572Z,1952
2018-02-25T08:05:29.076Z,1960
2018-02-25T08:05:54.562Z,1968
2018-02-25T08:06:20.114Z,1976
2018-02-25T08:06:45.460Z,1988
2018-02-25T08:07:10.937Z,1996
2018-02-25T08:07:36.442Z,2012
2018-02-25T08:08:01.905Z,2016
2018-02-25T08:08:27.550Z,2036
2018-02-25T08:08:53.185Z,2052
2018-02-25T08:09:18.602Z,2068
2018-02-25T08:09:44.517Z,2072
2018-02-25T08:11:04.354Z,2112
2018-02-25T08:11:30.104Z,2112
2018-02-25T08:11:55.761Z,2120
2018-02-25T08:12:21.778Z,2068
2018-02-25T08:12:47.517Z,2060
2018-02-25T08:13:13.316Z,2036
2018-02-25T08:13:39.138Z,2040
2018-02-25T08:14:04.505Z,2044
2018-02-25T08:14:30.368Z,2052
2018-02-25T08:14:56.214Z,2044
2018-02-25T08:15:21.689Z,2064
2018-02-25T08:15:47.483Z,2100
2018-02-25T08:16:13.049Z,2072
2018-02-25T08:16:38.433Z,2124
2018-02-25T08:17:03.927Z,2148
2018-02-25T08:17:29.477Z,2208
2018-02-25T08:17:54.966Z,2292
2018-02-25T08:18:20.705Z,2336
2018-02-25T08:18:46.325Z,2456
2018-02-25T08:19:12.025Z,2472
2018-02-25T08:19:37.470Z,2496
2018-02-25T08:20:03.266Z,2460
2018-02-25T08:20:29.052Z,2516
2018-02-25T08:20:54.355Z,2540
2018-02-25T08:21:19.878Z,2468
2018-02-25T08:21:45.297Z,2536
2018-02-25T08:22:10.914Z,2596
2018-02-25T08:22:36.254Z,2520
2018-02-25T08:23:01.743Z,2488
2018-02-25T08:23:27.188Z,2580
2018-02-25T08:23:52.664Z,2612
2018-02-25T08:24:18.349Z,2612
2018-02-25T08:24:43.989Z,2604
2018-02-25T08:25:09.410Z,2608
2018-02-25T08:25:34.891Z,2640
2018-02-25T08:26:00.399Z,2744
2018-02-25T08:26:25.834Z,2784
2018-02-25T08:26:51.291Z,2920
2018-02-25T08:27:16.855Z,2992
2018-02-25T08:27:42.372Z,3152
2018-02-25T08:28:07.967Z,3124
2018-02-25T08:28:33.282Z,3128
2018-02-25T08:28:58.876Z,3248
2018-02-25T08:29:24.282Z,3292
2018-02-25T08:29:49.788Z,3288
2018-02-25T08:30:15.245Z,3304
2018-02-25T08:30:40.745Z,3296
2018-02-25T08:31:06.209Z,3340
2018-02-25T08:31:31.647Z,3288
2018-02-25T08:31:57.160Z,3292
2018-02-25T08:32:22.591Z,3320
2018-02-25T08:32:48.081Z,3428
2018-02-25T08:33:13.656Z,3492
2018-02-25T08:33:39.108Z,3504
2018-02-25T08:34:04.561Z,3504
2018-02-25T08:34:30.004Z,3552
2018-02-25T08:34:55.479Z,3636
2018-02-25T08:35:20.960Z,3532
2018-02-25T08:35:46.433Z,3644
2018-02-25T08:36:11.890Z,3696
2018-02-25T08:36:37.410Z,3660
2018-02-25T08:37:02.834Z,3644
2018-02-25T08:37:28.333Z,3604
2018-02-25T08:37:53.823Z,3660
2018-02-25T08:38:19.223Z,3536
2018-02-25T08:38:44.724Z,3552
2018-02-25T08:39:10.204Z,3488
2018-02-25T08:39:35.688Z,3420
2018-02-25T08:40:01.186Z,3328
2018-02-25T08:40:26.607Z,3284
2018-02-25T08:40:52.101Z,3272
2018-02-25T08:41:17.570Z,3272
2018-02-25T08:41:43.034Z,3280
2018-02-25T08:42:08.501Z,3356
2018-02-25T08:42:33.980Z,3352
2018-02-25T08:42:59.457Z,3412
2018-02-25T08:43:24.942Z,3396
2018-02-25T08:43:50.456Z,3460
2018-02-25T08:44:16.003Z,3400
2018-02-25T08:44:41.401Z,3456
2018-02-25T08:45:06.886Z,3440
2018-02-25T08:45:32.321Z,3512
2018-02-25T08:45:57.787Z,3528
2018-02-25T08:46:23.278Z,3624
2018-02-25T08:46:48.748Z,3692
2018-02-25T08:47:14.222Z,3788
2018-02-25T08:47:39.715Z,3816
2018-02-25T08:48:05.166Z,3756
2018-02-25T08:48:30.718Z,3764
2018-02-25T08:48:56.149Z,3808
2018-02-25T08:49:21.589Z,3872
2018-02-25T08:49:47.050Z,3940
2018-02-25T08:50:12.541Z,4040
2018-02-25T08:50:38.063Z,4060
2018-02-25T08:51:03.555Z,4032
2018-02-25T08:51:29.038Z,4172
2018-02-25T08:51:54.474Z,4172
2018-02-25T08:52:19.949Z,4296
2018-02-25T08:52:45.445Z,4364
2018-02-25T08:53:10.924Z,4384
2018-02-25T08:53:36.400Z,4344
2018-02-25T08:54:01.843Z,4188
2018-02-25T08:54:27.306Z,4284
2018-02-25T08:54:52.779Z,4312
2018-02-25T08:55:18.255Z,4296
2018-02-25T08:55:43.723Z,4292
2018-02-25T08:56:09.224Z,4264
2018-02-25T08:56:34.661Z,4156
2018-02-25T08:57:00.155Z,4148
2018-02-25T08:57:25.611Z,4164
2018-02-25T08:57:51.091Z,4144
2018-02-25T08:58:16.569Z,4080
2018-02-25T08:58:42.016Z,4012
2018-02-25T08:59:07.544Z,3960
2018-02-25T08:59:32.979Z,3904
2018-02-25T08:59:58.497Z,3860
2018-02-25T09:00:23.938Z,3752
2018-02-25T09:00:49.394Z,3680
2018-02-25T09:01:14.879Z,3612
2018-02-25T09:01:40.374Z,3604
2018-02-25T09:02:05.843Z,3600
2018-02-25T09:02:31.302Z,3632
2018-02-25T09:02:56.789Z,3624
2018-02-25T09:03:22.237Z,3640
2018-02-25T09:03:47.724Z,3660
2018-02-25T09:04:13.232Z,3696
2018-02-25T09:04:38.664Z,3716
2018-02-25T09:05:04.155Z,3756
2018-02-25T09:05:29.631Z,3776
2018-02-25T09:05:55.062Z,3804
2018-02-25T09:06:20.582Z,3844
2018-02-25T09:06:46.021Z,3856
2018-02-25T09:07:11.525Z,3848
2018-02-25T09:07:36.965Z,3844
2018-02-25T09:08:02.476Z,3836
2018-02-25T09:08:28.016Z,3840
2018-02-25T09:08:53.431Z,3816
2018-02-25T09:09:18.865Z,3784
2018-02-25T09:09:44.331Z,3760
2018-02-25T09:10:09.819Z,3720
2018-02-25T09:10:35.303Z,3680
2018-02-25T09:11:00.769Z,3648
2018-02-25T09:11:26.284Z,3644
2018-02-25T09:11:51.732Z,3640
2018-02-25T09:12:17.218Z,3628
2018-02-25T09:12:42.684Z,3636
2018-02-25T09:13:08.124Z,3628
2018-02-25T09:13:33.588Z,3632
2018-02-25T09:13:59.077Z,3648
2018-02-25T09:14:24.578Z,3616
2018-02-25T09:14:50.036Z,3604
2018-02-25T09:15:15.524Z,3604
2018-02-25T09:15:41.080Z,3620
2018-02-25T09:16:06.551Z,3620
2018-02-25T09:16:32.002Z,3608
2018-02-25T09:16:57.485Z,3588
2018-02-25T09:17:22.955Z,3548
2018-02-25T09:17:48.434Z,3516
2018-02-25T09:18:13.893Z,3472
2018-02-25T09:18:39.366Z,3448
2018-02-25T09:19:05.067Z,3404
2018-02-25T09:19:30.694Z,3376
2018-02-25T09:19:56.246Z,3336
2018-02-25T09:20:21.597Z,3300
2018-02-25T09:20:47.071Z,3288
2018-02-25T09:21:12.571Z,3276
2018-02-25T09:21:38.134Z,3240
2018-02-25T09:22:03.935Z,3188
2018-02-25T09:22:29.153Z,3180
2018-02-25T09:22:54.588Z,3124
2018-02-25T09:23:20.054Z,3072
2018-02-25T09:23:45.555Z,3044
2018-02-25T09:24:11.252Z,3016
2018-02-25T09:24:36.711Z,3004
2018-02-25T09:25:02.253Z,2984
2018-02-25T09:25:27.709Z,2960
2018-02-25T09:25:53.170Z,2940
2018-02-25T09:26:18.649Z,2928
2018-02-25T09:26:44.167Z,2916
2018-02-25T09:27:09.615Z,2904
2018-02-25T09:27:35.093Z,2904
2018-02-25T09:28:00.544Z,2900
2018-02-25T09:28:26.043Z,2892
2018-02-25T09:28:51.512Z,2888
2018-02-25T09:29:16.992Z,2892
2018-02-25T09:29:42.478Z,2900
2018-02-25T09:30:07.997Z,2900
2018-02-25T09:30:33.454Z,2904
2018-02-25T09:30:58.907Z,2904
2018-02-25T09:31:24.384Z,2912
2018-02-25T09:31:49.865Z,2912
2018-02-25T09:32:15.336Z,2912
2018-02-25T09:32:40.806Z,2920
2018-02-25T09:33:06.331Z,2928
2018-02-25T09:33:31.776Z,2932
2018-02-25T09:33:57.248Z,2932
2018-02-25T09:34:22.699Z,2932
2018-02-25T09:34:48.177Z,2940
2018-02-25T09:35:13.652Z,2936
2018-02-25T09:35:39.154Z,2944
2018-02-25T09:36:04.606Z,2952
2018-02-25T09:36:30.078Z,2960
2018-02-25T09:36:55.561Z,2960
2018-02-25T09:37:21.080Z,2956
2018-02-25T09:37:46.500Z,2952
2018-02-25T09:38:11.985Z,2940
2018-02-25T09:38:37.478Z,2908
2018-02-25T09:39:02.959Z,2892
2018-02-25T09:39:28.446Z,2896
2018-02-25T09:39:53.924Z,2880
2018-02-25T09:40:19.379Z,2856
2018-02-25T09:40:44.865Z,2868
2018-02-25T09:41:10.344Z,2872
2018-02-25T09:41:35.840Z,2876
2018-02-25T09:42:01.362Z,2880
2018-02-25T09:42:26.838Z,2880
2018-02-25T09:42:52.312Z,2864
2018-02-25T09:43:17.808Z,2840
2018-02-25T09:43:43.396Z,2840
2018-02-25T09:44:08.745Z,2832
2018-02-25T09:44:34.349Z,2836
2018-02-25T09:44:59.840Z,2824
2018-02-25T09:45:25.314Z,2800
2018-02-25T09:45:50.800Z,2768
2018-02-25T09:46:16.254Z,2740
2018-02-25T09:46:41.746Z,2680
2018-02-25T09:47:07.215Z,2644
2018-02-25T09:47:32.681Z,2636
2018-02-25T09:47:58.146Z,2644
2018-02-25T09:48:23.619Z,2648
2018-02-25T09:48:49.114Z,2640
2018-02-25T09:49:14.607Z,2656
2018-02-25T09:49:40.073Z,2656
2018-02-25T09:50:05.559Z,2652
2018-02-25T09:50:31.005Z,2648
2018-02-25T09:50:56.479Z,2656
2018-02-25T09:51:21.985Z,2652
2018-02-25T09:51:47.482Z,2644
2018-02-25T09:52:12.998Z,2644
2018-02-25T09:52:38.493Z,2640
2018-02-25T09:53:03.934Z,2628
2018-02-25T09:53:29.395Z,2612
2018-02-25T09:53:54.882Z,2604
2018-02-25T09:54:20.372Z,2600
2018-02-25T09:54:45.857Z,2596
2018-02-25T09:55:11.341Z,2584
2018-02-25T09:55:36.819Z,2572
2018-02-25T09:56:02.304Z,2560
2018-02-25T09:56:27.758Z,2548
2018-02-25T09:56:53.354Z,2548
2018-02-25T09:57:18.869Z,2544
2018-02-25T09:57:44.518Z,2532
2018-02-25T09:58:09.963Z,2536
2018-02-25T09:58:35.532Z,2532
2018-02-25T09:59:00.933Z,2524
2018-02-25T09:59:26.435Z,2516
2018-02-25T09:59:51.852Z,2516
2018-02-25T10:00:17.303Z,2520
2018-02-25T10:00:42.922Z,2516
2018-02-25T10:01:08.423Z,2512
2018-02-25T10:01:33.949Z,2508
2018-02-25T10:01:59.446Z,2512
2018-02-25T10:02:24.893Z,2508
2018-02-25T10:02:50.385Z,2516
2018-02-25T10:03:15.841Z,2524
2018-02-25T10:03:41.355Z,2540
2018-02-25T10:04:06.902Z,2560
2018-02-25T10:04:32.272Z,2588
2018-02-25T10:04:57.756Z,2616
2018-02-25T10:05:23.228Z,2640
2018-02-25T10:05:48.713Z,2664
2018-02-25T10:06:14.172Z,2684
2018-02-25T10:06:39.819Z,2712
2018-02-25T10:07:05.297Z,2740
2018-02-25T10:07:30.749Z,2764
2018-02-25T10:07:56.342Z,2784
2018-02-25T10:08:21.834Z,2808
2018-02-25T10:08:47.364Z,2824
2018-02-25T10:09:12.813Z,2832
2018-02-25T10:09:38.369Z,2836
2018-02-25T10:10:03.782Z,2844
2018-02-25T10:10:29.270Z,2828
2018-02-25T10:10:54.721Z,2816
2018-02-25T10:11:20.214Z,2808
2018-02-25T10:11:45.689Z,2804
2018-02-25T10:12:11.190Z,2804
2018-02-25T10:12:36.674Z,2808
2018-02-25T10:13:02.175Z,2804
2018-02-25T10:13:27.693Z,2808
2018-02-25T10:13:53.148Z,2800
2018-02-25T10:14:18.648Z,2788
2018-02-25T10:14:44.192Z,2784
2018-02-25T10:15:09.674Z,2776
2018-02-25T10:15:35.142Z,2760
2018-02-25T10:16:00.621Z,2748
2018-02-25T10:16:26.099Z,2740
2018-02-25T10:16:51.568Z,2756
2018-02-25T10:17:17.094Z,2764
2018-02-25T10:17:42.569Z,2748
2018-02-25T10:18:08.056Z,2704
2018-02-25T10:18:33.512Z,2680
2018-02-25T10:18:58.997Z,2652
2018-02-25T10:19:24.448Z,2624
2018-02-25T10:19:49.929Z,2592
2018-02-25T10:20:15.412Z,2572
2018-02-25T10:20:40.852Z,2560
2018-02-25T10:21:06.345Z,2548
2018-02-25T10:21:31.831Z,2540
2018-02-25T10:21:57.349Z,2524
2018-02-25T10:22:22.773Z,2512
2018-02-25T10:22:48.249Z,2500
2018-02-25T10:23:13.725Z,2492
2018-02-25T10:23:39.215Z,2484
2018-02-25T10:24:04.746Z,2476
2018-02-25T10:24:30.185Z,2472
2018-02-25T10:24:55.644Z,2472
2018-02-25T10:25:21.144Z,2468
2018-02-25T10:25:46.614Z,2476
2018-02-25T10:26:12.167Z,2484
2018-02-25T10:26:37.570Z,2496
2018-02-25T10:27:03.028Z,2512
2018-02-25T10:27:28.495Z,2528
2018-02-25T10:27:53.945Z,2540
2018-02-25T10:28:19.475Z,2552
2018-02-25T10:28:44.949Z,2556
2018-02-25T10:29:10.392Z,2560
2018-02-25T10:29:35.897Z,2580
2018-02-25T10:30:01.376Z,2596
2018-02-25T10:30:26.846Z,2608
2018-02-25T10:30:52.319Z,2620
2018-02-25T10:31:17.779Z,2628
2018-02-25T10:31:43.257Z,2640
2018-02-25T10:32:08.728Z,2648
2018-02-25T10:32:34.188Z,2660
2018-02-25T10:32:59.697Z,2668
2018-02-25T10:33:25.134Z,2684
2018-02-25T10:33:50.625Z,2684
2018-02-25T10:34:16.075Z,2672
2018-02-25T10:34:41.542Z,2664
2018-02-25T10:35:07.049Z,2684
2018-02-25T10:35:32.526Z,2700
2018-02-25T10:35:57.986Z,2716
2018-02-25T10:36:23.466Z,2744
2018-02-25T10:36:48.931Z,2768
2018-02-25T10:37:14.437Z,2792
2018-02-25T10:37:39.909Z,2816
2018-02-25T10:38:05.378Z,2836
2018-02-25T10:38:30.837Z,2856
2018-02-25T10:38:56.338Z,2880
2018-02-25T10:39:21.812Z,2900
2018-02-25T10:39:47.303Z,2920
2018-02-25T10:40:12.751Z,2936
2018-02-25T10:40:38.215Z,2944
2018-02-25T10:41:03.706Z,2944
2018-02-25T10:41:29.189Z,2960
2018-02-25T10:41:54.710Z,2952
2018-02-25T10:42:20.206Z,2964
2018-02-25T10:42:45.697Z,2992
2018-02-25T10:43:11.203Z,3020
2018-02-25T10:43:36.631Z,3012
2018-02-25T10:44:02.087Z,3032
2018-02-25T10:44:27.593Z,3032
2018-02-25T10:44:53.083Z,3004
2018-02-25T10:45:18.588Z,3012
2018-02-25T10:45:44.086Z,3004
2018-02-25T10:46:09.580Z,2984
2018-02-25T10:46:35.078Z,2960
2018-02-25T10:47:00.634Z,2936
2018-02-25T10:47:26.145Z,2900
2018-02-25T10:47:51.643Z,2896
2018-02-25T10:48:17.138Z,2880
2018-02-25T10:48:42.642Z,2856
2018-02-25T10:49:08.166Z,2832
2018-02-25T10:49:33.649Z,2800
2018-02-25T10:49:59.242Z,2768
2018-02-25T10:50:24.761Z,2744
2018-02-25T10:50:50.219Z,2732
2018-02-25T10:51:15.742Z,2716